KOEO/OEO METAR and TAF weather

Enter ICAO airport designator
Station Type Date Time Source
KOEO METAR 2020/07/06 07:35 UTC NOAA

KOEO 060735Z AUTO 00000KT 10SM SCT070 23/23 A2997 RMK AO2 T02330233


Station Type Date Time Source
KOEO Decoded METAR 2020/07/06 07:35 UTC NOAA

Osceola, L O Simenstad Municipal Airport, WI, United States (KOEO) 45-18-31N 092-41-24W
Jul 06, 2020 - 03:35 AM EDT / 2020.07.06 0735 UTC
Wind: Calm:0
Visibility: 10 mile(s):0
Sky conditions: partly cloudy
Temperature: 73.9 F (23.3 C)
Dew Point: 73.9 F (23.3 C)
Relative Humidity: 100%
Pressure (altimeter): 29.97 in. Hg (1014 hPa)
ob: KOEO 060735Z AUTO 00000KT 10SM SCT070 23/23 A2997 RMK AO2 T02330233
cycle: 7

Station Type Date Time Source
KOEO TAF UTC NOAA

Error!

Example: see airport list